Capitol Logistics 1880

Operating for CJT



CYHM
John C. Munro Hamilton International Airport
Hamilton, CA
KCVG
Cincinnati/Northern Kentucky International Airport
Covington, US

Activity Log

Date Flight Route Aircraft Duration
11/05/2021 CPX2400 GGUCE APE TIGRR3 B763 1h 15m
10/12/2021 CPX1880 GGUCE APE TIGRR3 B752 1h 17m

Route Details

Aircraft Information
Group: North America Fleet
Types: B738,B752,B762,B763
Route Data
Demand: V
Distance: 328nm
Duration: 0h 57m
Recm'd Route: GGUCE APE TIGRR3
Origin Wx: CYHM 270400Z 19009KT 15SM -RA FEW037 BKN050 OVC120 20/17 A2981 RMK SC2SC4AC2 SLP094 DENSITY ALT 1700FT
Dest. Wx: KCVG 270452Z 25008KT 10SM SCT011 BKN017 OVC022 18/17 A2982 RMK AO2 RAB17E28 SLP090 P0005 T01830172 402390178 $
Notes:

Financial History
Total Freight: 109,232lbs
Average Load: 54,616lbs/flt
Fuel Used: 20,216lbs
Avg. Fuel Used: 10,108lbs/flt
Fuel Expense: $7,278
Avg. Fuel Expense: $3,639
Avg. Fuel Cost: $0.36/lbs
Total Gross Income: $254,511
Pilot Pay: $478
Total Expenses: $38,628
Total Revenue: $208,046
Average Revenue: $127,255.28